createdAt,value
2023-03-11T00:03:22.283Z,4.1
2023-03-11T00:08:28.411Z,3.8
2023-03-11T00:13:34.535Z,4.1
2023-03-11T00:18:39.669Z,4.1
2023-03-11T00:23:45.773Z,3.8
2023-03-11T00:28:51.898Z,3.1
2023-03-11T00:33:58.028Z,3.8
2023-03-11T00:39:04.124Z,3.8
2023-03-11T00:44:10.241Z,3.1
2023-03-11T00:49:16.353Z,3.1
2023-03-11T00:54:22.479Z,3.4
2023-03-11T00:59:28.601Z,3.4
2023-03-11T01:04:34.732Z,3.4
2023-03-11T01:09:40.821Z,3.1
2023-03-11T01:14:46.990Z,3.1
2023-03-11T01:19:53.090Z,3.1
2023-03-11T01:24:58.204Z,3.1
2023-03-11T01:30:04.339Z,2.8
2023-03-11T01:35:10.419Z,2.8
2023-03-11T01:40:16.536Z,2.5
2023-03-11T01:45:22.659Z,3.4
2023-03-11T01:50:28.787Z,2.8
2023-03-11T01:55:34.883Z,2.8
2023-03-11T02:00:41.010Z,2.8
2023-03-11T02:05:47.116Z,2.5
2023-03-11T02:10:53.236Z,3.1
2023-03-11T02:15:59.395Z,2.5
2023-03-11T02:21:05.514Z,2.8
2023-03-11T02:26:11.646Z,2.5
2023-03-11T02:31:16.769Z,3.1
2023-03-11T02:36:22.885Z,3.1
2023-03-11T02:41:29.000Z,2.5
2023-03-11T02:46:35.122Z,2.8
2023-03-11T02:51:41.230Z,2.8
2023-03-11T02:56:47.338Z,2.5
2023-03-11T03:01:53.461Z,2.8
2023-03-11T03:06:59.607Z,3.1
2023-03-11T03:12:05.690Z,3.1
2023-03-11T03:17:11.821Z,2.8
2023-03-11T03:22:17.926Z,2.8
2023-03-11T03:27:24.040Z,2.5
2023-03-11T03:32:30.149Z,2.2
2023-03-11T03:37:35.286Z,2.8
2023-03-11T03:42:41.412Z,2.5
2023-03-11T03:47:47.515Z,2.2
2023-03-11T03:52:53.636Z,2.2
2023-03-11T03:57:59.746Z,2.5
2023-03-11T04:03:05.865Z,2.2
2023-03-11T04:08:11.988Z,2.2
2023-03-11T04:13:18.109Z,2.5
2023-03-11T04:18:24.251Z,2.8
2023-03-11T04:23:30.346Z,2.2
2023-03-11T04:28:36.465Z,1.8
2023-03-11T04:33:42.575Z,2.5
2023-03-11T04:38:48.695Z,2.5
2023-03-11T04:43:53.815Z,2.5
2023-03-11T04:48:59.924Z,2.2
2023-03-11T04:54:06.057Z,2.8
2023-03-11T04:59:12.205Z,2.5
2023-03-11T05:04:18.279Z,2.2
2023-03-11T05:09:24.391Z,1.8
2023-03-11T05:14:30.512Z,2.2
2023-03-11T05:19:36.614Z,2.2
2023-03-11T05:24:42.755Z,2.2
2023-03-11T05:29:48.891Z,2.2
2023-03-11T05:34:54.995Z,2.2
2023-03-11T05:40:01.094Z,2.2
2023-03-11T05:45:07.229Z,2.2
2023-03-11T05:50:12.352Z,1.8
2023-03-11T05:55:18.476Z,2.2
2023-03-11T06:00:24.589Z,2.2
2023-03-11T06:05:30.688Z,2.5
2023-03-11T06:10:36.819Z,2.5
2023-03-11T06:15:42.956Z,2.2
2023-03-11T06:20:49.092Z,2.2
2023-03-11T06:25:55.164Z,1.8
2023-03-11T06:31:01.264Z,1.8
2023-03-11T06:36:07.400Z,2.5
2023-03-11T06:41:13.515Z,2.2
2023-03-11T06:46:19.643Z,2.2
2023-03-11T06:51:25.755Z,2.2
2023-03-11T06:56:30.875Z,2.2
2023-03-11T07:01:37.013Z,1.8
2023-03-11T07:06:43.109Z,2.2
2023-03-11T07:11:49.232Z,2.8
2023-03-11T07:16:55.348Z,2.2
2023-03-11T07:22:01.456Z,2.2
2023-03-11T07:27:07.566Z,2.5
2023-03-11T07:32:13.681Z,2.2
2023-03-11T07:37:19.802Z,2.2
2023-03-11T07:42:25.929Z,2.2
2023-03-11T07:47:32.037Z,1.8
2023-03-11T07:52:38.141Z,2.2
2023-03-11T07:57:44.291Z,2.8
2023-03-11T08:02:49.425Z,2.2
2023-03-11T08:07:55.534Z,2.2
2023-03-11T08:13:01.646Z,2.2
2023-03-11T08:18:07.760Z,2.2
2023-03-11T08:23:13.896Z,1.8
2023-03-11T08:28:20.013Z,1.8
2023-03-11T08:33:26.108Z,2.2
2023-03-11T08:38:32.341Z,2.2
2023-03-11T08:43:38.362Z,1.8
2023-03-11T08:48:44.464Z,2.2
2023-03-11T08:53:50.569Z,1.8
2023-03-11T08:58:56.685Z,2.5
2023-03-11T09:04:02.827Z,2.2
2023-03-11T09:09:07.945Z,1.5
2023-03-11T09:14:14.050Z,2.2
2023-03-11T09:19:20.326Z,1.8
2023-03-11T09:24:26.292Z,1.5
2023-03-11T09:29:32.394Z,1.8
2023-03-11T09:34:37.534Z,1.5
2023-03-11T09:39:43.686Z,1.8
2023-03-11T09:44:49.919Z,1.5
2023-03-11T09:49:55.887Z,1.5
2023-03-11T09:55:02.007Z,1.8
2023-03-11T10:00:08.126Z,2.2
2023-03-11T10:05:14.287Z,1.2
2023-03-11T10:10:20.382Z,1.5
2023-03-11T10:15:26.466Z,1.2
2023-03-11T10:20:32.583Z,2.2
2023-03-11T10:25:38.708Z,2.2
2023-03-11T10:30:44.818Z,2.5
2023-03-11T10:35:50.942Z,1.5
2023-03-11T10:40:56.056Z,1.8
2023-03-11T10:46:02.177Z,1.8
2023-03-11T10:51:08.297Z,1.5
2023-03-11T10:56:14.426Z,1.8
2023-03-11T11:01:20.537Z,1.8
2023-03-11T11:06:26.661Z,2.2
2023-03-11T11:11:32.779Z,1.8
2023-03-11T11:16:38.944Z,1.5
2023-03-11T11:21:45.018Z,1.8
2023-03-11T11:31:57.263Z,1.8
2023-03-11T11:37:03.422Z,1.8
2023-03-11T11:42:09.482Z,1.5
2023-03-11T11:47:14.629Z,1.5
2023-03-11T11:52:20.739Z,1.5
2023-03-11T11:57:26.860Z,1.8
2023-03-11T12:02:32.967Z,1.8
2023-03-11T12:07:39.066Z,1.8
2023-03-11T12:12:45.213Z,2.2
2023-03-11T12:17:51.320Z,2.2
2023-03-11T12:22:57.477Z,2.5
2023-03-11T12:28:03.626Z,1.5
2023-03-11T12:33:09.696Z,1.5
2023-03-11T12:38:15.812Z,1.8
2023-03-11T12:43:21.916Z,2.2
2023-03-11T12:48:28.059Z,1.5
2023-03-11T12:53:33.189Z,1.5
2023-03-11T12:58:39.282Z,1.8
2023-03-11T13:03:45.421Z,1.2
2023-03-11T13:08:51.531Z,1.5
2023-03-11T13:13:57.647Z,1.2
2023-03-11T13:19:03.780Z,1.8
2023-03-11T13:24:09.894Z,1.5
2023-03-11T13:29:16.016Z,1.8
2023-03-11T13:34:22.141Z,1.8
2023-03-11T13:39:28.336Z,1.8
2023-03-11T13:44:34.364Z,1.5
2023-03-11T13:49:40.471Z,1.8
2023-03-11T13:54:46.598Z,1.5
2023-03-11T13:59:51.697Z,2.2
2023-03-11T14:04:57.812Z,1.8
2023-03-11T14:10:03.925Z,2.2
2023-03-11T14:20:16.167Z,2.2
2023-03-11T14:25:22.268Z,1.8
2023-03-11T14:30:28.373Z,1.2
2023-03-11T14:35:34.481Z,2.2
2023-03-11T14:40:40.593Z,1.8
2023-03-11T14:45:46.713Z,1.8
2023-03-11T14:50:52.820Z,1.5
2023-03-11T14:55:58.920Z,1.5
2023-03-11T15:01:05.066Z,2.2
2023-03-11T15:06:10.297Z,1.5
2023-03-11T15:11:16.327Z,1.2
2023-03-11T15:16:22.425Z,1.5
2023-03-11T15:21:28.492Z,1.5
2023-03-11T15:26:34.611Z,1.8
2023-03-11T15:31:40.748Z,1.8
2023-03-11T15:36:46.927Z,1.8
2023-03-11T15:41:52.956Z,1.5
2023-03-11T15:46:59.067Z,1.8
2023-03-11T15:52:05.171Z,2.2
2023-03-11T15:57:11.312Z,2.2
2023-03-11T16:02:17.399Z,1.8
2023-03-11T16:07:23.516Z,1.8
2023-03-11T16:12:28.727Z,1.5
2023-03-11T16:17:34.778Z,2.2
2023-03-11T16:22:40.882Z,1.5
2023-03-11T16:27:47.001Z,1.8
2023-03-11T16:32:53.124Z,1.5
2023-03-11T16:37:59.235Z,1.5
2023-03-11T16:43:05.362Z,1.2
2023-03-11T16:48:11.530Z,1.5
2023-03-11T16:53:17.577Z,1.5
2023-03-11T16:58:23.696Z,2.2
2023-03-11T17:03:29.823Z,1.8
2023-03-11T17:08:35.948Z,1.5
2023-03-11T17:13:42.107Z,1.8
2023-03-11T17:18:47.170Z,2.2
2023-03-11T17:23:53.309Z,1.5
2023-03-11T17:28:59.427Z,1.8
2023-03-11T17:34:05.560Z,1.5
2023-03-11T17:39:11.645Z,1.8
2023-03-11T17:44:17.762Z,1.5
2023-03-11T17:49:23.888Z,1.5
2023-03-11T17:54:30.000Z,1.5
2023-03-11T17:59:36.331Z,1.5
2023-03-11T18:04:42.262Z,1.8
2023-03-11T18:09:48.354Z,2.2
2023-03-11T18:14:54.476Z,1.2
2023-03-11T18:20:00.595Z,1.8
2023-03-11T18:25:05.739Z,1.2
2023-03-11T18:30:11.842Z,1.5
2023-03-11T18:35:17.968Z,1.5
2023-03-11T18:40:24.083Z,1.2
2023-03-11T18:45:30.274Z,1.5
2023-03-11T18:50:36.320Z,1.5
2023-03-11T18:55:42.419Z,1.5
2023-03-11T19:00:48.568Z,1.5
2023-03-11T19:05:54.662Z,1.8
2023-03-11T19:11:00.794Z,1.5
2023-03-11T19:21:13.018Z,1.5
2023-03-11T19:26:19.148Z,1.2
2023-03-11T19:31:24.265Z,2.2
2023-03-11T19:36:30.389Z,1.5
2023-03-11T19:41:36.643Z,0.9
2023-03-11T19:46:42.620Z,0.9
2023-03-11T19:51:48.728Z,1.8
2023-03-11T19:56:54.842Z,1.5
2023-03-11T20:02:00.962Z,1.2
2023-03-11T20:07:07.081Z,0.9
2023-03-11T20:12:13.194Z,1.2
2023-03-11T20:17:19.410Z,0.9
2023-03-11T20:22:25.438Z,1.5
2023-03-11T20:27:31.635Z,1.5
2023-03-11T20:32:37.815Z,1.2
2023-03-11T20:37:42.815Z,1.2
2023-03-11T20:42:48.994Z,1.2
2023-03-11T20:47:55.088Z,1.5
2023-03-11T20:53:01.161Z,0.9
2023-03-11T20:58:07.250Z,0.5
2023-03-11T21:03:13.382Z,1.5
2023-03-11T21:08:19.499Z,1.2
2023-03-11T21:13:25.672Z,1.2
2023-03-11T21:18:31.767Z,1.5
2023-03-11T21:23:37.863Z,1.2
2023-03-11T21:28:43.998Z,1.2
2023-03-11T21:33:50.135Z,1.2
2023-03-11T21:38:56.238Z,1.5
2023-03-11T21:44:01.380Z,1.2
2023-03-11T21:49:07.503Z,1.5
2023-03-11T21:54:13.586Z,0.9
2023-03-11T21:59:19.720Z,1.2
2023-03-11T22:04:25.845Z,0.9
2023-03-11T22:09:31.950Z,1.2
2023-03-11T22:14:38.055Z,1.2
2023-03-11T22:19:44.199Z,1.2
2023-03-11T22:24:50.300Z,0.9
2023-03-11T22:29:56.424Z,0.5
2023-03-11T22:35:02.521Z,1.2
2023-03-11T22:40:08.625Z,1.5
2023-03-11T22:45:14.749Z,0.9
2023-03-11T22:50:19.876Z,1.2
2023-03-11T22:55:26.004Z,1.5
2023-03-11T23:00:32.126Z,0.9
2023-03-11T23:05:38.233Z,0.9
2023-03-11T23:10:44.352Z,0.5
2023-03-11T23:15:50.474Z,0.5
2023-03-11T23:20:56.586Z,0.5
2023-03-11T23:26:02.711Z,1.2
2023-03-11T23:31:08.815Z,0.9
2023-03-11T23:41:21.061Z,0.9
2023-03-11T23:46:27.393Z,1.2
2023-03-11T23:51:33.353Z,0.5
2023-03-11T23:56:38.416Z,1.2
